CST,Max TemperatureF,Mean TemperatureF,Min TemperatureF,Max Dew PointF,MeanDew PointF,Min DewpointF,Max Humidity, Mean Humidity, Min Humidity, Max Sea Level PressureIn, Mean Sea Level PressureIn, Min Sea Level PressureIn, Max VisibilityMiles, Mean VisibilityMiles, Min VisibilityMiles, Max Wind SpeedMPH, Mean Wind SpeedMPH, Max Gust SpeedMPH,PrecipitationIn, CloudCover, Events, WindDirDegrees
2013-2-1,-2,-12,-22,-9,-19,-29,84,72,60,30.22,30.10,30.02,10,10,10,7,4,,0.00,5,Snow,211
2013-2-2,8,-6,-20,1,-8,-26,85,77,70,30.17,30.05,29.93,10,10,5,16,5,23,0.00,6,Snow,231
2013-2-3,8,4,0,1,-3,-8,85,74,66,30.09,30.04,30.02,10,10,10,15,7,16,0.00,8,Snow,77
2013-2-4,15,8,1,16,9,-4,100,89,73,30.02,29.75,29.50,10,7,0,15,6,23,0.06,7,Snow,181
2013-2-5,10,3,-4,10,-1,-6,100,84,66,30.05,29.94,29.64,10,10,6,18,10,24,0.00,8,Snow,3
2013-2-6,14,8,3,14,8,0,100,94,79,30.21,30.01,29.90,10,7,0,15,8,,0.90,7,Snow,48
2013-2-7,10,2,-7,7,3,-9,100,90,78,30.31,30.27,30.20,10,10,10,9,5,,0.00,7,Snow,343
2013-2-8,23,16,8,23,15,7,100,92,80,30.26,30.12,29.97,10,9,3,18,9,24,0.00,7,,161
2013-2-9,26,22,19,27,24,19,100,100,100,29.96,29.89,29.85,10,8,3,10,8,,0.00,7,,220
2013-2-10,24,20,17,25,22,18,100,100,100,29.89,29.83,29.77,10,6,1,28,10,34,0.02,8,Rain-Snow,354
2013-2-11,23,16,10,21,15,10,100,90,74,29.97,29.90,29.76,10,10,5,22,15,31,0.01,7,Snow,300
2013-2-12,32,21,10,25,19,9,93,80,69,29.76,29.71,29.64,10,10,10,16,9,24,0.00,4,,265
2013-2-13,26,22,17,27,22,16,100,96,80,29.83,29.68,29.61,10,10,9,15,6,17,0.00,5,Snow,328
2013-2-14,19,10,1,16,5,0,100,83,62,30.26,30.12,29.84,10,10,10,15,11,18,0.00,5,Snow,333
2013-2-15,15,2,-11,9,0,-15,100,83,67,30.34,30.28,30.17,10,10,10,9,4,,0.00,4,,281
2013-2-16,17,5,-7,18,6,-9,100,90,73,30.17,29.99,29.79,10,9,2,15,7,18,0.00,7,Snow,157
2013-2-17,37,27,17,34,26,18,100,97,81,29.78,29.54,29.40,10,9,1,20,12,26,0.83,5,Snow,178
2013-2-18,23,8,-7,23,1,-15,100,87,71,30.26,29.94,29.56,10,3,0,32,24,44,2.59,6,Snow,342
2013-2-19,-4,-10,-16,-15,-18,-22,77,68,50,30.52,30.43,30.26,10,10,10,18,14,29,0.00,1,,333
2013-2-20,3,-10,-20,-2,-15,-26,85,74,64,30.52,30.44,30.33,10,10,10,12,4,,0.00,2,,120
2013-2-21,15,8,1,7,2,-2,92,73,57,30.36,30.31,30.21,10,10,10,17,9,22,0.00,6,,147
2013-2-22,15,6,-2,9,3,-4,100,84,62,30.20,30.04,29.90,10,10,10,6,1,,0.00,3,,104
2013-2-23,19,8,-4,14,7,-6,100,92,73,29.89,29.85,29.81,10,10,10,12,5,,0.00,1,,157
2013-2-24,28,14,1,27,12,1,100,93,74,29.98,29.94,29.90,10,10,9,10,6,,0.00,5,,143
2013-2-25,37,22,8,23,18,9,100,80,44,29.99,29.93,29.87,10,10,10,16,5,22,0.00,0,,200
2013-2-26,35,24,12,23,16,9,100,71,44,30.11,29.98,29.87,10,10,9,15,8,21,0.00,0,,240
2013-2-27,26,20,14,23,19,14,100,92,80,30.27,30.20,30.11,10,10,10,21,11,26,0.00,2,,332
2013-2-28,21,13,5,18,13,3,100,90,79,30.36,30.33,30.28,10,10,10,13,9,,0.00,4,,335